sensor_id;sensor_type;location;lat;lon;timestamp;pressure;altitude;pressure_sealevel;temperature;humidity
14612;BME280;7392;52.078;11.650;2023-05-24T00:00:45;101290.84;;;9.11;87.06
14612;BME280;7392;52.078;11.650;2023-05-24T00:03:13;101292.59;;;9.08;86.77
14612;BME280;7392;52.078;11.650;2023-05-24T00:05:44;101284.59;;;9.05;87.35
14612;BME280;7392;52.078;11.650;2023-05-24T00:08:14;101287.19;;;9.02;86.99
14612;BME280;7392;52.078;11.650;2023-05-24T00:10:42;101292.47;;;8.98;87.09
14612;BME280;7392;52.078;11.650;2023-05-24T00:13:10;101294.16;;;8.95;87.16
14612;BME280;7392;52.078;11.650;2023-05-24T00:15:38;101301.22;;;8.93;87.58
14612;BME280;7392;52.078;11.650;2023-05-24T00:18:05;101287.91;;;8.90;87.10
14612;BME280;7392;52.078;11.650;2023-05-24T00:20:33;101295.84;;;8.87;87.16
14612;BME280;7392;52.078;11.650;2023-05-24T00:23:02;101297.56;;;8.82;87.35
14612;BME280;7392;52.078;11.650;2023-05-24T00:25:31;101293.09;;;8.80;87.91
14612;BME280;7392;52.078;11.650;2023-05-24T00:27:59;101291.31;;;8.78;88.09
14612;BME280;7392;52.078;11.650;2023-05-24T00:30:27;101286.84;;;8.74;87.63
14612;BME280;7392;52.078;11.650;2023-05-24T00:32:54;101286.78;;;8.71;88.03
14612;BME280;7392;52.078;11.650;2023-05-24T00:35:22;101283.22;;;8.69;88.45
14612;BME280;7392;52.078;11.650;2023-05-24T00:37:52;101289.41;;;8.68;88.63
14612;BME280;7392;52.078;11.650;2023-05-24T00:40:19;101288.47;;;8.66;88.29
14612;BME280;7392;52.078;11.650;2023-05-24T00:42:50;101284.06;;;8.65;88.39
14612;BME280;7392;52.078;11.650;2023-05-24T00:45:18;101286.69;;;8.63;88.43
14612;BME280;7392;52.078;11.650;2023-05-24T00:47:46;101287.56;;;8.62;88.39
14612;BME280;7392;52.078;11.650;2023-05-24T00:50:14;101282.25;;;8.62;88.92
14612;BME280;7392;52.078;11.650;2023-05-24T00:52:42;101288.47;;;8.63;88.98
14612;BME280;7392;52.078;11.650;2023-05-24T00:55:11;101291.94;;;8.60;88.52
14612;BME280;7392;52.078;11.650;2023-05-24T00:57:39;101290.16;;;8.60;88.88
14612;BME280;7392;52.078;11.650;2023-05-24T01:00:10;101287.53;;;8.60;88.82
14612;BME280;7392;52.078;11.650;2023-05-24T01:02:38;101281.31;;;8.58;88.26
14612;BME280;7392;52.078;11.650;2023-05-24T01:05:07;101281.34;;;8.60;88.95
14612;BME280;7392;52.078;11.650;2023-05-24T01:07:46;101282.22;;;8.60;89.16
14612;BME280;7392;52.078;11.650;2023-05-24T01:10:21;101275.16;;;8.59;88.61
14612;BME280;7392;52.078;11.650;2023-05-24T01:13:08;101280.47;;;8.59;89.07
14612;BME280;7392;52.078;11.650;2023-05-24T01:15:46;101276.06;;;8.60;88.84
14612;BME280;7392;52.078;11.650;2023-05-24T01:18:20;101275.19;;;8.61;89.75
14612;BME280;7392;52.078;11.650;2023-05-24T01:21:05;101273.44;;;8.61;88.98
14612;BME280;7392;52.078;11.650;2023-05-24T01:23:46;101278.75;;;8.63;88.88
14612;BME280;7392;52.078;11.650;2023-05-24T01:26:36;101275.19;;;8.61;88.68
14612;BME280;7392;52.078;11.650;2023-05-24T01:29:08;101282.25;;;8.62;88.85
14612;BME280;7392;52.078;11.650;2023-05-24T01:31:37;101277.84;;;8.61;88.42
14612;BME280;7392;52.078;11.650;2023-05-24T01:34:05;101287.56;;;8.62;88.29
14612;BME280;7392;52.078;11.650;2023-05-24T01:36:32;101282.22;;;8.60;88.22
14612;BME280;7392;52.078;11.650;2023-05-24T01:39:00;101284.88;;;8.60;88.42
14612;BME280;7392;52.078;11.650;2023-05-24T01:41:37;101291.09;;;8.61;88.62
14612;BME280;7392;52.078;11.650;2023-05-24T01:44:13;101287.53;;;8.60;88.83
14612;BME280;7392;52.078;11.650;2023-05-24T01:46:46;101288.44;;;8.61;88.40
14612;BME280;7392;52.078;11.650;2023-05-24T01:49:20;101287.50;;;8.59;88.89
14612;BME280;7392;52.078;11.650;2023-05-24T01:51:52;101292.78;;;8.59;89.16
14612;BME280;7392;52.078;11.650;2023-05-24T01:54:22;101285.75;;;8.58;89.34
14612;BME280;7392;52.078;11.650;2023-05-24T01:56:53;101279.56;;;8.57;89.29
14612;BME280;7392;52.078;11.650;2023-05-24T01:59:25;101284.81;;;8.54;89.05
14612;BME280;7392;52.078;11.650;2023-05-24T02:01:56;101283.91;;;8.54;89.70
14612;BME280;7392;52.078;11.650;2023-05-24T02:04:24;101287.44;;;8.53;89.25
14612;BME280;7392;52.078;11.650;2023-05-24T02:06:52;101290.97;;;8.53;90.15
14612;BME280;7392;52.078;11.650;2023-05-24T02:09:39;101285.63;;;8.52;89.82
14612;BME280;7392;52.078;11.650;2023-05-24T02:12:12;101281.22;;;8.52;90.19
14612;BME280;7392;52.078;11.650;2023-05-24T02:14:45;101291.81;;;8.52;90.12
14612;BME280;7392;52.078;11.650;2023-05-24T02:17:22;101286.50;;;8.52;90.61
14612;BME280;7392;52.078;11.650;2023-05-24T02:19:55;101285.59;;;8.50;90.46
14612;BME280;7392;52.078;11.650;2023-05-24T02:22:29;101290.94;;;8.52;90.67
14612;BME280;7392;52.078;11.650;2023-05-24T02:24:57;101292.72;;;8.53;90.87
14612;BME280;7392;52.078;11.650;2023-05-24T02:27:29;101282.09;;;8.50;90.82
14612;BME280;7392;52.078;11.650;2023-05-24T02:30:01;101287.38;;;8.50;90.91
14612;BME280;7392;52.078;11.650;2023-05-24T02:32:29;101282.06;;;8.48;90.53
14612;BME280;7392;52.078;11.650;2023-05-24T02:35:03;101277.63;;;8.49;91.14
14612;BME280;7392;52.078;11.650;2023-05-24T02:37:35;101275.00;;;8.49;91.30
14612;BME280;7392;52.078;11.650;2023-05-24T02:40:15;101275.03;;;8.50;91.73
14612;BME280;7392;52.078;11.650;2023-05-24T02:42:43;101279.44;;;8.50;91.60
14612;BME280;7392;52.078;11.650;2023-05-24T02:45:18;101281.19;;;8.49;92.04
14612;BME280;7392;52.078;11.650;2023-05-24T02:47:59;101282.91;;;8.47;91.84
14612;BME280;7392;52.078;11.650;2023-05-24T02:50:28;101275.81;;;8.43;91.63
14612;BME280;7392;52.078;11.650;2023-05-24T02:53:01;101284.56;;;8.40;91.91
14612;BME280;7392;52.078;11.650;2023-05-24T02:55:32;101281.91;;;8.39;91.44
14612;BME280;7392;52.078;11.650;2023-05-24T02:58:02;101280.97;;;8.38;92.49
14612;BME280;7392;52.078;11.650;2023-05-24T03:00:38;101280.09;;;8.38;92.55
14612;BME280;7392;52.078;11.650;2023-05-24T03:03:07;101279.25;;;8.39;92.96
14612;BME280;7392;52.078;11.650;2023-05-24T03:05:36;101273.03;;;8.38;92.93
14612;BME280;7392;52.078;11.650;2023-05-24T03:08:09;101276.59;;;8.39;92.74
14612;BME280;7392;52.078;11.650;2023-05-24T03:10:42;101273.91;;;8.36;92.23
14612;BME280;7392;52.078;11.650;2023-05-24T03:13:17;101280.97;;;8.35;93.00
14612;BME280;7392;52.078;11.650;2023-05-24T03:15:52;101279.13;;;8.33;93.10
14612;BME280;7392;52.078;11.650;2023-05-24T03:18:20;101277.38;;;8.33;93.17
14612;BME280;7392;52.078;11.650;2023-05-24T03:20:57;101284.44;;;8.33;92.88
14612;BME280;7392;52.078;11.650;2023-05-24T03:23:27;101287.94;;;8.30;93.26
14612;BME280;7392;52.078;11.650;2023-05-24T03:25:55;101282.63;;;8.32;93.89
14612;BME280;7392;52.078;11.650;2023-05-24T03:28:36;101283.59;;;8.34;93.73
14612;BME280;7392;52.078;11.650;2023-05-24T03:31:10;101274.72;;;8.33;93.86
14612;BME280;7392;52.078;11.650;2023-05-24T03:33:45;101286.22;;;8.34;93.91
14612;BME280;7392;52.078;11.650;2023-05-24T03:36:18;101279.13;;;8.33;94.04
14612;BME280;7392;52.078;11.650;2023-05-24T03:38:54;101284.47;;;8.34;94.31
14612;BME280;7392;52.078;11.650;2023-05-24T03:41:28;101288.00;;;8.35;94.06
14612;BME280;7392;52.078;11.650;2023-05-24T03:44:01;101288.91;;;8.37;94.25
14612;BME280;7392;52.078;11.650;2023-05-24T03:46:40;101286.28;;;8.38;94.41
14612;BME280;7392;52.078;11.650;2023-05-24T03:49:14;101292.50;;;8.42;94.71
14612;BME280;7392;52.078;11.650;2023-05-24T03:51:50;101289.84;;;8.39;93.92
14612;BME280;7392;52.078;11.650;2023-05-24T03:54:19;101284.53;;;8.37;94.32
14612;BME280;7392;52.078;11.650;2023-05-24T03:56:51;101289.78;;;8.36;94.48
14612;BME280;7392;52.078;11.650;2023-05-24T03:59:20;101288.91;;;8.35;94.83
14612;BME280;7392;52.078;11.650;2023-05-24T04:01:50;101295.06;;;8.34;95.33
14612;BME280;7392;52.078;11.650;2023-05-24T04:04:19;101288.91;;;8.35;95.60
14612;BME280;7392;52.078;11.650;2023-05-24T04:06:51;101291.56;;;8.35;95.50
14612;BME280;7392;52.078;11.650;2023-05-24T04:09:21;101305.69;;;8.37;95.91
14612;BME280;7392;52.078;11.650;2023-05-24T04:11:55;101295.06;;;8.36;95.59
14612;BME280;7392;52.078;11.650;2023-05-24T04:14:24;101289.75;;;8.34;95.22
14612;BME280;7392;52.078;11.650;2023-05-24T04:16:53;101289.72;;;8.33;95.88
14612;BME280;7392;52.078;11.650;2023-05-24T04:19:21;101295.94;;;8.35;96.65
14612;BME280;7392;52.078;11.650;2023-05-24T04:21:49;101294.19;;;8.35;96.19
14612;BME280;7392;52.078;11.650;2023-05-24T04:24:25;101295.94;;;8.35;96.26
14612;BME280;7392;52.078;11.650;2023-05-24T04:26:54;101296.75;;;8.31;95.66
14612;BME280;7392;52.078;11.650;2023-05-24T04:29:33;101291.47;;;8.31;96.14
14612;BME280;7392;52.078;11.650;2023-05-24T04:32:13;101297.63;;;8.31;96.21
14612;BME280;7392;52.078;11.650;2023-05-24T04:34:49;101302.09;;;8.32;96.67
14612;BME280;7392;52.078;11.650;2023-05-24T04:37:32;101307.44;;;8.35;97.28
14612;BME280;7392;52.078;11.650;2023-05-24T04:40:11;101295.09;;;8.37;96.79
14612;BME280;7392;52.078;11.650;2023-05-24T04:42:46;101291.53;;;8.37;96.34
14612;BME280;7392;52.078;11.650;2023-05-24T04:45:27;101294.25;;;8.40;96.42
14612;BME280;7392;52.078;11.650;2023-05-24T04:48:01;101304.06;;;8.44;95.66
14612;BME280;7392;52.078;11.650;2023-05-24T04:50:46;101301.41;;;8.42;95.42
14612;BME280;7392;52.078;11.650;2023-05-24T04:53:15;101301.44;;;8.46;95.70
14612;BME280;7392;52.078;11.650;2023-05-24T04:55:46;101302.34;;;8.48;95.54
14612;BME280;7392;52.078;11.650;2023-05-24T04:58:15;101306.78;;;8.50;95.44
14612;BME280;7392;52.078;11.650;2023-05-24T05:00:48;101309.53;;;8.55;95.31
14612;BME280;7392;52.078;11.650;2023-05-24T05:03:21;101313.97;;;8.57;95.41
14612;BME280;7392;52.078;11.650;2023-05-24T05:05:49;101316.63;;;8.57;95.11
14612;BME280;7392;52.078;11.650;2023-05-24T05:08:20;101306.97;;;8.61;95.28
14612;BME280;7392;52.078;11.650;2023-05-24T05:10:53;101316.69;;;8.62;94.52
14612;BME280;7392;52.078;11.650;2023-05-24T05:13:35;101318.50;;;8.65;95.43
14612;BME280;7392;52.078;11.650;2023-05-24T05:16:09;101318.53;;;8.69;95.46
14612;BME280;7392;52.078;11.650;2023-05-24T05:18:46;101318.59;;;8.72;95.85
14612;BME280;7392;52.078;11.650;2023-05-24T05:21:26;101312.53;;;8.78;96.12
14612;BME280;7392;52.078;11.650;2023-05-24T05:24:00;101329.34;;;8.85;96.43
14612;BME280;7392;52.078;11.650;2023-05-24T05:26:29;101328.53;;;8.87;95.60
14612;BME280;7392;52.078;11.650;2023-05-24T05:28:57;101335.63;;;8.91;96.25
14612;BME280;7392;52.078;11.650;2023-05-24T05:31:25;101331.28;;;8.93;95.85
14612;BME280;7392;52.078;11.650;2023-05-24T05:33:54;101336.56;;;8.95;95.98
14612;BME280;7392;52.078;11.650;2023-05-24T05:36:22;101333.94;;;8.96;96.00
14612;BME280;7392;52.078;11.650;2023-05-24T05:38:50;101334.88;;;9.02;96.18
14612;BME280;7392;52.078;11.650;2023-05-24T05:41:18;101337.59;;;9.05;96.23
14612;BME280;7392;52.078;11.650;2023-05-24T05:43:46;101342.06;;;9.10;96.51
14612;BME280;7392;52.078;11.650;2023-05-24T05:46:14;101336.84;;;9.15;96.38
14612;BME280;7392;52.078;11.650;2023-05-24T05:48:42;101336.88;;;9.16;96.24
14612;BME280;7392;52.078;11.650;2023-05-24T05:51:13;101336.06;;;9.21;96.42
14612;BME280;7392;52.078;11.650;2023-05-24T05:53:41;101336.06;;;9.24;96.24
14612;BME280;7392;52.078;11.650;2023-05-24T05:56:08;101330.88;;;9.31;96.34
14612;BME280;7392;52.078;11.650;2023-05-24T05:58:36;101329.22;;;9.40;97.06
14612;BME280;7392;52.078;11.650;2023-05-24T06:01:04;101331.91;;;9.44;95.51
14612;BME280;7392;52.078;11.650;2023-05-24T06:03:32;101336.34;;;9.47;95.31
14612;BME280;7392;52.078;11.650;2023-05-24T06:06:00;101328.44;;;9.53;96.16
14612;BME280;7392;52.078;11.650;2023-05-24T06:08:29;101332.06;;;9.58;95.74
14612;BME280;7392;52.078;11.650;2023-05-24T06:11:00;101340.09;;;9.64;96.18
14612;BME280;7392;52.078;11.650;2023-05-24T06:13:28;101342.81;;;9.70;96.44
14612;BME280;7392;52.078;11.650;2023-05-24T06:15:56;101342.00;;;9.78;96.29
14612;BME280;7392;52.078;11.650;2023-05-24T06:18:25;101345.56;;;9.81;95.45
14612;BME280;7392;52.078;11.650;2023-05-24T06:20:56;101352.66;;;9.84;95.80
14612;BME280;7392;52.078;11.650;2023-05-24T06:23:23;101353.56;;;9.84;95.13
14612;BME280;7392;52.078;11.650;2023-05-24T06:25:52;101352.69;;;9.87;94.92
14612;BME280;7392;52.078;11.650;2023-05-24T06:28:21;101354.53;;;9.91;95.50
14612;BME280;7392;52.078;11.650;2023-05-24T06:30:49;101360.78;;;9.96;95.05
14612;BME280;7392;52.078;11.650;2023-05-24T06:33:17;101364.38;;;10.01;95.23
14612;BME280;7392;52.078;11.650;2023-05-24T06:35:45;101361.75;;;10.09;95.25
14612;BME280;7392;52.078;11.650;2023-05-24T06:38:12;101360.03;;;10.14;94.80
14612;BME280;7392;52.078;11.650;2023-05-24T06:40:40;101360.94;;;10.16;94.05
14612;BME280;7392;52.078;11.650;2023-05-24T06:43:09;101364.53;;;10.21;94.14
14612;BME280;7392;52.078;11.650;2023-05-24T06:45:39;101365.47;;;10.25;94.49
14612;BME280;7392;52.078;11.650;2023-05-24T06:48:07;101372.56;;;10.29;93.53
14612;BME280;7392;52.078;11.650;2023-05-24T06:50:35;101370.81;;;10.31;93.34
14612;BME280;7392;52.078;11.650;2023-05-24T06:53:06;101370.03;;;10.38;93.76
14612;BME280;7392;52.078;11.650;2023-05-24T06:55:34;101376.25;;;10.40;92.76
14612;BME280;7392;52.078;11.650;2023-05-24T06:58:01;101385.97;;;10.40;91.90
14612;BME280;7392;52.078;11.650;2023-05-24T07:00:31;101378.91;;;10.40;91.35
14612;BME280;7392;52.078;11.650;2023-05-24T07:02:59;101392.16;;;10.37;91.17
14612;BME280;7392;52.078;11.650;2023-05-24T07:05:27;101385.06;;;10.38;91.60
14612;BME280;7392;52.078;11.650;2023-05-24T07:07:55;101385.97;;;10.40;92.18
14612;BME280;7392;52.078;11.650;2023-05-24T07:10:22;101386.91;;;10.46;92.59
14612;BME280;7392;52.078;11.650;2023-05-24T07:12:50;101388.72;;;10.47;91.66
14612;BME280;7392;52.078;11.650;2023-05-24T07:15:18;101390.47;;;10.50;90.92
14612;BME280;7392;52.078;11.650;2023-05-24T07:17:47;101387.81;;;10.50;91.26
14612;BME280;7392;52.078;11.650;2023-05-24T07:20:16;101401.13;;;10.53;91.36
14612;BME280;7392;52.078;11.650;2023-05-24T07:22:43;101394.06;;;10.52;90.70
14612;BME280;7392;52.078;11.650;2023-05-24T07:25:11;101399.38;;;10.54;91.38
14612;BME280;7392;52.078;11.650;2023-05-24T07:27:39;101399.38;;;10.54;91.01
14612;BME280;7392;52.078;11.650;2023-05-24T07:30:08;101397.59;;;10.51;90.86
14612;BME280;7392;52.078;11.650;2023-05-24T07:32:57;101397.59;;;10.53;91.18
14612;BME280;7392;52.078;11.650;2023-05-24T07:35:24;101398.47;;;10.52;90.36
14612;BME280;7392;52.078;11.650;2023-05-24T07:37:59;101404.69;;;10.52;90.89
14612;BME280;7392;52.078;11.650;2023-05-24T07:40:31;101401.13;;;10.52;90.64
14612;BME280;7392;52.078;11.650;2023-05-24T07:43:05;101401.13;;;10.53;91.04
14612;BME280;7392;52.078;11.650;2023-05-24T07:45:45;101410.00;;;10.55;90.58
14612;BME280;7392;52.078;11.650;2023-05-24T07:48:26;101404.69;;;10.54;90.56
14612;BME280;7392;52.078;11.650;2023-05-24T07:50:58;101407.38;;;10.57;90.72
14612;BME280;7392;52.078;11.650;2023-05-24T07:53:32;101401.16;;;10.55;90.47
14612;BME280;7392;52.078;11.650;2023-05-24T07:56:05;101410.03;;;10.57;90.36
14612;BME280;7392;52.078;11.650;2023-05-24T07:58:33;101413.59;;;10.57;90.99
14612;BME280;7392;52.078;11.650;2023-05-24T08:01:02;101418.91;;;10.60;91.14
14612;BME280;7392;52.078;11.650;2023-05-24T08:03:33;101410.09;;;10.64;91.59
14612;BME280;7392;52.078;11.650;2023-05-24T08:06:02;101411.88;;;10.69;91.37
14612;BME280;7392;52.078;11.650;2023-05-24T08:08:30;101417.25;;;10.73;91.62
14612;BME280;7392;52.078;11.650;2023-05-24T08:10:59;101410.19;;;10.78;91.81
14612;BME280;7392;52.078;11.650;2023-05-24T08:13:27;101407.53;;;10.78;91.38
14612;BME280;7392;52.078;11.650;2023-05-24T08:15:55;101411.97;;;10.81;91.73
14612;BME280;7392;52.078;11.650;2023-05-24T08:18:23;101419.13;;;10.85;92.18
14612;BME280;7392;52.078;11.650;2023-05-24T08:20:53;101414.72;;;10.89;92.03
14612;BME280;7392;52.078;11.650;2023-05-24T08:23:20;101414.75;;;10.93;92.44
14612;BME280;7392;52.078;11.650;2023-05-24T08:25:48;101418.31;;;11.01;92.38
14612;BME280;7392;52.078;11.650;2023-05-24T08:28:16;101417.47;;;11.04;92.11
14612;BME280;7392;52.078;11.650;2023-05-24T08:30:44;101415.75;;;11.11;92.02
14612;BME280;7392;52.078;11.650;2023-05-24T08:33:11;101422.00;;;11.17;92.03
14612;BME280;7392;52.078;11.650;2023-05-24T08:35:39;101425.59;;;11.26;92.17
14612;BME280;7392;52.078;11.650;2023-05-24T08:38:09;101430.00;;;11.28;91.77
14612;BME280;7392;52.078;11.650;2023-05-24T08:40:37;101430.94;;;11.33;91.22
14612;BME280;7392;52.078;11.650;2023-05-24T08:43:06;101435.38;;;11.37;91.46
14612;BME280;7392;52.078;11.650;2023-05-24T08:45:38;101431.00;;;11.46;92.07
14612;BME280;7392;52.078;11.650;2023-05-24T08:48:06;101431.03;;;11.52;91.57
14612;BME280;7392;52.078;11.650;2023-05-24T08:50:34;101438.13;;;11.56;90.94
14612;BME280;7392;52.078;11.650;2023-05-24T08:53:05;101437.28;;;11.63;91.39
14612;BME280;7392;52.078;11.650;2023-05-24T08:55:34;101442.66;;;11.71;92.10
14612;BME280;7392;52.078;11.650;2023-05-24T08:58:03;101447.13;;;11.81;92.37
14612;BME280;7392;52.078;11.650;2023-05-24T09:00:31;101446.25;;;11.87;91.90
14612;BME280;7392;52.078;11.650;2023-05-24T09:03:00;101448.09;;;11.92;91.07
14612;BME280;7392;52.078;11.650;2023-05-24T09:05:28;101449.88;;;11.98;91.71
14612;BME280;7392;52.078;11.650;2023-05-24T09:07:58;101448.13;;;12.06;91.88
14612;BME280;7392;52.078;11.650;2023-05-24T09:10:27;101456.13;;;12.14;90.97
14612;BME280;7392;52.078;11.650;2023-05-24T09:13:18;101455.25;;;12.21;91.19
14612;BME280;7392;52.078;11.650;2023-05-24T09:15:45;101448.16;;;12.26;90.51
14612;BME280;7392;52.078;11.650;2023-05-24T09:18:13;101449.94;;;12.29;90.35
14612;BME280;7392;52.078;11.650;2023-05-24T09:20:41;101457.94;;;12.32;90.04
14612;BME280;7392;52.078;11.650;2023-05-24T09:23:10;101458.84;;;12.34;89.60
14612;BME280;7392;52.078;11.650;2023-05-24T09:25:42;101458.88;;;12.40;89.86
14612;BME280;7392;52.078;11.650;2023-05-24T09:28:12;101456.16;;;12.42;89.40
14612;BME280;7392;52.078;11.650;2023-05-24T09:30:44;101457.09;;;12.42;89.29
14612;BME280;7392;52.078;11.650;2023-05-24T09:33:12;101456.19;;;12.45;90.25
14612;BME280;7392;52.078;11.650;2023-05-24T09:35:41;101451.75;;;12.50;90.34
14612;BME280;7392;52.078;11.650;2023-05-24T09:38:15;101447.31;;;12.58;91.07
14612;BME280;7392;52.078;11.650;2023-05-24T09:40:56;101455.34;;;12.66;90.64
14612;BME280;7392;52.078;11.650;2023-05-24T09:43:31;101448.22;;;12.72;90.55
14612;BME280;7392;52.078;11.650;2023-05-24T09:46:03;101447.34;;;12.78;89.58
14612;BME280;7392;52.078;11.650;2023-05-24T09:48:40;101450.88;;;12.82;89.17
14612;BME280;7392;52.078;11.650;2023-05-24T09:51:24;101450.88;;;12.86;89.86
14612;BME280;7392;52.078;11.650;2023-05-24T09:54:00;101440.19;;;12.93;89.80
14612;BME280;7392;52.078;11.650;2023-05-24T09:56:32;101447.31;;;12.98;90.21
14612;BME280;7392;52.078;11.650;2023-05-24T09:59:09;101456.19;;;13.06;89.98
14612;BME280;7392;52.078;11.650;2023-05-24T10:01:40;101450.84;;;13.11;89.59
14612;BME280;7392;52.078;11.650;2023-05-24T10:04:11;101452.63;;;13.15;88.27
14612;BME280;7392;52.078;11.650;2023-05-24T10:06:41;101445.53;;;13.20;87.94
14612;BME280;7392;52.078;11.650;2023-05-24T10:09:13;101448.16;;;13.29;88.35
14612;BME280;7392;52.078;11.650;2023-05-24T10:11:56;101445.47;;;13.43;88.49
14612;BME280;7392;52.078;11.650;2023-05-24T10:14:31;101451.69;;;13.50;85.96
14612;BME280;7392;52.078;11.650;2023-05-24T10:17:06;101449.88;;;13.55;85.28
14612;BME280;7392;52.078;11.650;2023-05-24T10:19:43;101446.28;;;13.69;85.20
14612;BME280;7392;52.078;11.650;2023-05-24T10:22:23;101453.34;;;13.82;84.52
14612;BME280;7392;52.078;11.650;2023-05-24T10:25:05;101448.84;;;13.92;82.94
14612;BME280;7392;52.078;11.650;2023-05-24T10:27:36;101449.69;;;14.05;82.78
14612;BME280;7392;52.078;11.650;2023-05-24T10:30:10;101450.47;;;14.22;81.37
14612;BME280;7392;52.078;11.650;2023-05-24T10:32:44;101450.31;;;14.47;81.64
14612;BME280;7392;52.078;11.650;2023-05-24T10:35:14;101453.00;;;14.47;78.63
14612;BME280;7392;52.078;11.650;2023-05-24T10:37:44;101453.88;;;14.49;79.29
14612;BME280;7392;52.078;11.650;2023-05-24T10:40:16;101444.03;;;14.49;78.78
14612;BME280;7392;52.078;11.650;2023-05-24T10:42:46;101449.38;;;14.52;79.27
14612;BME280;7392;52.078;11.650;2023-05-24T10:45:30;101458.25;;;14.54;77.96
14612;BME280;7392;52.078;11.650;2023-05-24T10:50:51;101444.91;;;14.56;76.58
14612;BME280;7392;52.078;11.650;2023-05-24T10:53:22;101450.22;;;14.57;76.07
14612;BME280;7392;52.078;11.650;2023-05-24T10:55:54;101460.91;;;14.57;75.71
14612;BME280;7392;52.078;11.650;2023-05-24T10:58:27;101459.13;;;14.64;76.02
14612;BME280;7392;52.078;11.650;2023-05-24T11:01:12;101452.78;;;14.77;76.79
14612;BME280;7392;52.078;11.650;2023-05-24T11:03:42;101461.56;;;14.92;76.85
14612;BME280;7392;52.078;11.650;2023-05-24T11:06:16;101462.31;;;15.06;75.65
14612;BME280;7392;52.078;11.650;2023-05-24T11:08:52;101453.09;;;15.35;74.99
14612;BME280;7392;52.078;11.650;2023-05-24T11:11:25;101463.41;;;15.72;74.80
14612;BME280;7392;52.078;11.650;2023-05-24T11:14:09;101457.81;;;15.94;74.65
14612;BME280;7392;52.078;11.650;2023-05-24T11:16:44;101457.66;;;16.06;73.57
14612;BME280;7392;52.078;11.650;2023-05-24T11:19:23;101464.72;;;16.10;71.08
14612;BME280;7392;52.078;11.650;2023-05-24T11:22:07;101460.38;;;16.01;69.63
14612;BME280;7392;52.078;11.650;2023-05-24T11:24:39;101465.72;;;16.01;70.28
14612;BME280;7392;52.078;11.650;2023-05-24T11:27:10;101464.84;;;16.02;70.18
14612;BME280;7392;52.078;11.650;2023-05-24T11:29:44;101455.84;;;16.06;71.42
14612;BME280;7392;52.078;11.650;2023-05-24T11:32:14;101464.69;;;16.12;72.17
14612;BME280;7392;52.078;11.650;2023-05-24T11:34:53;101463.84;;;16.10;70.75
14612;BME280;7392;52.078;11.650;2023-05-24T11:37:24;101469.19;;;16.11;71.67
14612;BME280;7392;52.078;11.650;2023-05-24T11:40:18;101461.97;;;16.15;71.99
14612;BME280;7392;52.078;11.650;2023-05-24T11:42:47;101461.00;;;16.20;72.29
14612;BME280;7392;52.078;11.650;2023-05-24T11:45:27;101454.72;;;16.23;72.29
14612;BME280;7392;52.078;11.650;2023-05-24T11:48:05;101456.44;;;16.27;71.91
14612;BME280;7392;52.078;11.650;2023-05-24T11:50:38;101452.78;;;16.31;71.26
14612;BME280;7392;52.078;11.650;2023-05-24T11:53:19;101457.03;;;16.46;71.79
14612;BME280;7392;52.078;11.650;2023-05-24T11:55:54;101452.28;;;16.63;71.53
14612;BME280;7392;52.078;11.650;2023-05-24T11:58:43;101457.31;;;16.88;71.00
14612;BME280;7392;52.078;11.650;2023-05-24T12:01:34;101463.22;;;17.07;69.67
14612;BME280;7392;52.078;11.650;2023-05-24T12:04:13;101466.63;;;17.18;68.91
14612;BME280;7392;52.078;11.650;2023-05-24T12:06:49;101461.97;;;17.27;68.96
14612;BME280;7392;52.078;11.650;2023-05-24T12:09:21;101458.19;;;17.37;68.96
14612;BME280;7392;52.078;11.650;2023-05-24T12:12:04;101459.75;;;17.49;68.73
14612;BME280;7392;52.078;11.650;2023-05-24T12:14:39;101458.63;;;17.61;68.20
14612;BME280;7392;52.078;11.650;2023-05-24T12:17:19;101454.03;;;17.67;67.83
14612;BME280;7392;52.078;11.650;2023-05-24T12:19:48;101459.28;;;17.73;67.60
14612;BME280;7392;52.078;11.650;2023-05-24T12:22:18;101453.16;;;17.65;63.87
14612;BME280;7392;52.078;11.650;2023-05-24T12:24:51;101461.31;;;17.61;64.86
14612;BME280;7392;52.078;11.650;2023-05-24T12:27:25;101453.16;;;17.65;65.87
14612;BME280;7392;52.078;11.650;2023-05-24T12:30:05;101458.31;;;17.76;66.85
14612;BME280;7392;52.078;11.650;2023-05-24T12:32:35;101452.88;;;17.79;65.76
14612;BME280;7392;52.078;11.650;2023-05-24T12:35:07;101456.53;;;17.76;64.79
14612;BME280;7392;52.078;11.650;2023-05-24T12:37:39;101454.69;;;17.79;64.21
14612;BME280;7392;52.078;11.650;2023-05-24T12:40:14;101453.81;;;17.78;64.83
14612;BME280;7392;52.078;11.650;2023-05-24T12:42:49;101458.31;;;17.76;64.05
14612;BME280;7392;52.078;11.650;2023-05-24T12:45:19;101447.69;;;17.71;62.89
14612;BME280;7392;52.078;11.650;2023-05-24T12:47:53;101462.03;;;17.70;63.84
14612;BME280;7392;52.078;11.650;2023-05-24T12:50:24;101462.94;;;17.69;63.79
14612;BME280;7392;52.078;11.650;2023-05-24T12:52:59;101457.69;;;17.63;62.29
14612;BME280;7392;52.078;11.650;2023-05-24T12:55:29;101459.56;;;17.60;63.37
14612;BME280;7392;52.078;11.650;2023-05-24T12:57:59;101467.66;;;17.58;64.21
14612;BME280;7392;52.078;11.650;2023-05-24T13:00:29;101458.81;;;17.53;62.94
14612;BME280;7392;52.078;11.650;2023-05-24T13:03:01;101451.69;;;17.49;63.58
14612;BME280;7392;52.078;11.650;2023-05-24T13:05:56;101452.59;;;17.51;64.34
14612;BME280;7392;52.078;11.650;2023-05-24T13:08:31;101453.47;;;17.51;63.94
14612;BME280;7392;52.078;11.650;2023-05-24T13:11:09;101446.34;;;17.49;63.54
14612;BME280;7392;52.078;11.650;2023-05-24T13:13:40;101454.41;;;17.47;63.05
14612;BME280;7392;52.078;11.650;2023-05-24T13:16:10;101450.88;;;17.45;62.90
14612;BME280;7392;52.078;11.650;2023-05-24T13:18:37;101460.84;;;17.38;62.88
14612;BME280;7392;52.078;11.650;2023-05-24T13:21:05;101454.66;;;17.35;64.16
14612;BME280;7392;52.078;11.650;2023-05-24T13:23:39;101457.44;;;17.30;64.40